Time;durP1;ratioP1;P1;durP2;ratioP2;P2;SDS_P1;SDS_P2;PMS_P1;PMS_P2;Temp;Humidity;BMP_temperature;BMP_pressure;BME280_temperature;BME280_humidity;BME280_pressure;Samples;Min_cycle;Max_cycle;Signal;HPM_P1;HPM_P2
2021/08/07 00:01:19;;;;;;;14.34;8.44;;;;;;;23.96;63.87;98284.69;369747;108;1960848;-73
2021/08/07 00:02:25;;;;;;;13.67;8.63;;;;;;;23.97;63.97;98294.56;373419;106;1960648;-72
2021/08/07 00:03:37;;;;;;;11.32;8.01;;;;;;;24.01;63.82;98304.62;399735;104;1984682;-73
2021/08/07 00:04:44;;;;;;;12.47;8.27;;;;;;;23.96;63.94;98309.50;371252;103;1960727;-72
2021/08/07 00:05:49;;;;;;;14.62;8.26;;;;;;;23.90;63.84;98303.36;373233;105;1960713;-72
2021/08/07 00:06:56;;;;;;;12.84;8.04;;;;;;;24.04;63.54;98305.92;372907;105;1960662;-72
2021/08/07 00:08:01;;;;;;;11.57;8.66;;;;;;;24.04;63.38;98311.44;372089;107;1960913;-72
2021/08/07 00:09:06;;;;;;;14.11;8.43;;;;;;;24.06;63.35;98306.41;362032;109;1960811;-71
2021/08/07 00:10:12;;;;;;;13.63;8.52;;;;;;;24.01;63.51;98314.85;367589;107;1960749;-72
2021/08/07 00:11:17;;;;;;;12.19;8.05;;;;;;;24.01;63.51;98312.90;372964;107;1960623;-72
2021/08/07 00:12:30;;;;;;;12.37;8.42;;;;;;;24.09;63.64;98314.83;351834;104;2898717;-72
2021/08/07 00:13:35;;;;;;;13.50;7.85;;;;;;;24.01;63.44;98314.85;338434;105;2002810;-72
2021/08/07 00:14:47;;;;;;;12.50;7.52;;;;;;;24.11;63.58;98317.27;397028;104;1984816;-72
2021/08/07 00:15:52;;;;;;;12.21;8.14;;;;;;;24.01;63.49;98315.66;376543;103;1960753;-73
2021/08/07 00:17:15;;;;;;;13.14;8.43;;;;;;;24.05;63.47;98319.36;315182;107;2358849;-71
2021/08/07 00:18:21;;;;;;;13.04;8.48;;;;;;;24.00;63.49;98325.08;318563;109;2101973;-72
2021/08/07 00:19:34;;;;;;;12.96;8.49;;;;;;;24.06;63.79;98325.72;396422;104;2070021;-71
2021/08/07 00:20:40;;;;;;;12.52;7.67;;;;;;;24.00;63.87;98327.84;373958;107;1968955;-72
2021/08/07 00:21:53;;;;;;;11.89;7.86;;;;;;;24.07;63.71;98322.61;393466;104;2071999;-71
2021/08/07 00:22:58;;;;;;;13.26;8.39;;;;;;;24.04;63.48;98331.55;376744;107;1970952;-72
2021/08/07 00:24:11;;;;;;;10.13;7.49;;;;;;;24.16;63.50;98336.41;396510;104;1986023;-71
2021/08/07 00:25:16;;;;;;;12.72;7.71;;;;;;;23.91;63.84;98340.81;377151;107;1962070;-72
2021/08/07 00:26:40;;;;;;;10.68;7.52;;;;;;;24.00;63.75;98338.87;378776;107;1963037;-72
2021/08/07 00:27:47;;;;;;;12.79;7.26;;;;;;;23.93;63.63;98343.27;371827;107;1961962;-72
2021/08/07 00:28:59;;;;;;;13.26;8.96;;;;;;;24.13;63.51;98345.31;394558;104;1965022;-71
2021/08/07 00:30:06;;;;;;;10.71;7.33;;;;;;;24.03;63.46;98349.25;374354;105;1969944;-71
2021/08/07 00:31:18;;;;;;;11.41;6.66;;;;;;;24.01;63.83;98350.71;382305;104;1985911;-71
2021/08/07 00:32:24;;;;;;;12.64;7.67;;;;;;;23.98;63.70;98348.61;365472;107;1962012;-71
2021/08/07 00:33:36;;;;;;;12.98;8.29;;;;;;;24.14;63.66;98358.80;391978;104;1987951;-72
2021/08/07 00:34:41;;;;;;;11.25;7.07;;;;;;;24.05;63.38;98351.66;371882;109;1962020;-72
2021/08/07 00:36:05;;;;;;;11.19;7.26;;;;;;;23.97;63.63;98349.73;373814;107;1962063;-70
2021/08/07 00:37:17;;;;;;;10.28;6.64;;;;;;;23.93;64.26;98357.05;404125;104;1985817;-71
2021/08/07 00:38:27;;;;;;;10.67;6.45;;;;;;;23.76;64.47;98358.66;373485;107;1962023;-72
2021/08/07 00:39:32;;;;;;;12.31;7.26;;;;;;;23.72;64.53;98354.95;363228;112;1962077;-72
2021/08/07 00:40:45;;;;;;;12.39;7.42;;;;;;;23.70;65.02;98351.66;364386;104;2515891;-71
2021/08/07 00:41:50;;;;;;;12.04;7.56;;;;;;;23.70;64.83;98348.91;345793;107;1962002;-71
2021/08/07 00:42:56;;;;;;;15.91;8.04;;;;;;;23.70;64.76;98354.42;367223;109;1963139;-71
2021/08/07 00:44:08;;;;;;;10.83;7.13;;;;;;;23.77;65.00;98353.98;397426;104;1986911;-71
2021/08/07 00:45:16;;;;;;;11.43;7.05;;;;;;;23.60;65.16;98360.25;329751;107;2760938;-69
2021/08/07 00:46:25;;;;;;;12.01;7.50;;;;;;;23.59;65.23;98355.89;374914;108;1961993;-72
2021/08/07 00:47:31;;;;;;;13.91;7.82;;;;;;;23.55;65.21;98364.00;301265;107;2316113;-71
2021/08/07 00:48:43;;;;;;;12.58;8.65;;;;;;;23.87;64.87;98354.45;381785;105;2074914;-71
2021/08/07 00:49:49;;;;;;;13.62;8.61;;;;;;;23.77;64.65;98352.03;364561;111;1962075;-71
2021/08/07 00:51:02;;;;;;;11.24;7.68;;;;;;;23.78;65.02;98363.86;343699;104;2851033;-72
2021/08/07 00:52:08;;;;;;;12.47;7.12;;;;;;;23.84;64.54;98366.14;372207;107;1962046;-71
2021/08/07 00:53:32;;;;;;;12.48;8.06;;;;;;;23.89;64.21;98357.68;325040;113;2597945;-71
2021/08/07 00:54:44;;;;;;;13.99;8.68;;;;;;;23.88;64.73;98364.34;398345;103;1961992;-71
2021/08/07 00:55:50;;;;;;;10.83;7.73;;;;;;;23.84;64.16;98360.63;373958;107;1969832;-68
2021/08/07 00:56:55;;;;;;;12.14;7.14;;;;;;;23.73;64.69;98359.31;373157;107;1961965;-71
2021/08/07 00:58:08;;;;;;;12.26;8.08;;;;;;;23.69;65.11;98361.89;371182;103;2404983;-71
2021/08/07 00:59:13;;;;;;;10.91;7.76;;;;;;;23.52;65.28;98364.63;360158;106;1961955;-70
2021/08/07 01:00:25;;;;;;;11.72;7.62;;;;;;;23.56;65.61;98368.38;396822;104;1986955;-71
2021/08/07 01:01:39;;;;;;;11.34;7.80;;;;;;;23.49;65.45;98371.59;373000;105;1963071;-71
2021/08/07 01:02:49;;;;;;;11.28;7.17;;;;;;;23.43;65.90;98369.34;371396;107;1961985;-70
2021/08/07 01:04:05;;;;;;;13.62;7.81;;;;;;;23.55;65.74;98363.17;393702;104;1986008;-70
2021/08/07 01:05:25;;;;;;;10.94;7.05;;;;;;;23.40;65.86;98359.77;374977;107;1961930;-71
2021/08/07 01:06:46;;;;;;;10.15;6.70;;;;;;;23.55;65.60;98357.66;397226;104;1987027;-71
2021/08/07 01:08:07;;;;;;;11.36;7.00;;;;;;;23.35;65.76;98359.11;370589;109;1961939;-72
2021/08/07 01:09:48;;;;;;;11.96;7.79;;;;;;;23.34;65.72;98352.80;368009;109;1962020;-70
2021/08/07 01:11:38;;;;;;;10.46;7.35;;;;;;;23.56;65.19;98354.59;395118;101;1986990;-71
2021/08/07 01:12:53;;;;;;;10.36;6.70;;;;;;;23.60;64.45;98363.02;380874;105;1961941;-70
2021/08/07 01:14:07;;;;;;;9.84;6.11;;;;;;;23.61;63.97;98365.45;353521;104;2048015;-71
2021/08/07 01:15:17;;;;;;;11.61;6.44;;;;;;;23.46;63.65;98366.73;371862;105;1962115;-71
2021/08/07 01:16:44;;;;;;;9.21;6.22;;;;;;;23.44;63.79;98368.99;374029;107;1961972;-71
2021/08/07 01:17:53;;;;;;;9.08;5.92;;;;;;;23.53;62.67;98371.78;372918;108;1961957;-70
2021/08/07 01:19:09;;;;;;;9.35;6.42;;;;;;;23.60;62.79;98363.81;409938;101;1985890;-71
2021/08/07 01:20:18;;;;;;;8.54;5.57;;;;;;;23.46;62.33;98369.48;386774;103;1961988;-71
2021/08/07 01:21:34;;;;;;;7.98;5.48;;;;;;;23.52;62.36;98363.82;400757;104;1987976;-72
2021/08/07 01:22:49;;;;;;;9.07;5.47;;;;;;;23.44;61.98;98371.75;375354;107;1962078;-71
2021/08/07 01:24:34;;;;;;;8.81;5.63;;;;;;;23.43;61.98;98370.14;369334;110;1961934;-71
2021/08/07 01:26:14;;;;;;;9.45;5.70;;;;;;;23.48;61.74;98386.52;345469;104;2788018;-71
2021/08/07 01:27:30;;;;;;;8.77;4.98;;;;;;;23.37;61.73;98376.14;401979;104;1986067;-70
2021/08/07 01:28:58;;;;;;;8.72;5.17;;;;;;;23.34;61.59;98385.86;373857;107;1961950;-71
2021/08/07 01:30:13;;;;;;;9.09;5.64;;;;;;;23.34;61.96;98385.02;394580;104;1986035;-71
2021/08/07 01:31:20;;;;;;;8.82;5.47;;;;;;;23.29;61.99;98387.94;373314;107;1964072;-71
2021/08/07 01:32:31;;;;;;;8.66;5.68;;;;;;;23.28;62.14;98395.39;374805;107;1962862;-72
2021/08/07 01:33:46;;;;;;;8.91;6.12;;;;;;;23.48;62.13;98382.96;362313;103;2582033;-72
2021/08/07 01:34:55;;;;;;;10.77;5.97;;;;;;;23.81;60.83;98386.08;332197;105;2709965;-72
2021/08/07 01:36:03;;;;;;;9.22;5.63;;;;;;;23.52;61.78;98388.62;371962;107;1963863;-72
2021/08/07 01:37:15;;;;;;;9.44;6.26;;;;;;;23.59;62.11;98388.97;394178;104;1986991;-71
2021/08/07 01:38:31;;;;;;;10.01;6.02;;;;;;;23.51;61.86;98393.34;369262;109;1961982;-71
2021/08/07 01:39:45;;;;;;;9.21;6.33;;;;;;;23.42;62.19;98385.06;345400;109;2423945;-71
2021/08/07 01:40:57;;;;;;;8.57;5.56;;;;;;;23.61;61.54;98384.75;397495;104;1985961;-71
2021/08/07 01:42:03;;;;;;;8.79;5.92;;;;;;;23.41;61.71;98388.94;378551;105;1961984;-71
2021/08/07 01:43:08;;;;;;;10.93;5.66;;;;;;;23.42;61.74;98392.52;378654;105;1962017;-71
2021/08/07 01:44:20;;;;;;;10.89;5.63;;;;;;;23.56;61.11;98384.91;391070;104;2071939;-70
2021/08/07 01:45:26;;;;;;;9.96;5.42;;;;;;;23.35;60.80;98383.91;376309;106;1964013;-72
2021/08/07 01:46:50;;;;;;;7.31;4.82;;;;;;;23.43;60.97;98383.92;370847;109;1961963;-71
2021/08/07 01:48:09;;;;;;;9.90;5.34;;;;;;;23.48;60.66;98377.45;397865;104;1985972;-71
2021/08/07 01:49:23;;;;;;;9.33;5.29;;;;;;;23.33;60.50;98380.66;377566;106;1962037;-72
2021/08/07 01:50:39;;;;;;;7.84;5.10;;;;;;;23.47;60.10;98392.34;345389;109;2604001;-72
2021/08/07 01:51:59;;;;;;;10.50;5.69;;;;;;;23.42;59.79;98395.28;380062;108;1986996;-72
2021/08/07 01:53:27;;;;;;;10.90;5.23;;;;;;;23.30;60.19;98395.89;362206;109;1961905;-71
2021/08/07 01:54:39;;;;;;;7.63;4.90;;;;;;;23.32;59.80;98393.63;363674;112;1961902;-71
2021/08/07 01:56:15;;;;;;;6.95;4.56;;;;;;;23.47;59.50;98401.45;359760;104;2624034;-72
2021/08/07 01:57:25;;;;;;;10.21;4.86;;;;;;;23.36;59.67;98393.79;382403;105;1961880;-71
2021/08/07 01:58:45;;;;;;;12.99;5.26;;;;;;;23.47;59.55;98389.59;373805;106;1986986;-72
2021/08/07 01:59:52;;;;;;;8.43;4.79;;;;;;;23.30;59.84;98401.41;370397;109;1964087;-71
2021/08/07 02:01:24;;;;;;;7.42;4.75;;;;;;;23.22;60.05;98394.73;326991;109;2007875;-72
2021/08/07 02:02:41;;;;;;;7.74;4.87;;;;;;;23.36;59.90;98393.79;397409;104;1985953;-70
2021/08/07 02:03:49;;;;;;;8.37;4.96;;;;;;;23.19;60.05;98397.33;336730;108;2524052;-72
2021/08/07 02:05:01;;;;;;;8.43;5.07;;;;;;;23.27;60.23;98404.80;399821;101;1986072;-72
2021/08/07 02:06:09;;;;;;;8.10;5.53;;;;;;;23.22;59.95;98414.02;312970;105;2277856;-71
2021/08/07 02:07:33;;;;;;;7.13;4.88;;;;;;;23.18;60.16;98404.79;334648;105;2813029;-71
2021/08/07 02:08:42;;;;;;;8.72;5.14;;;;;;;23.15;60.42;98413.66;380190;105;1964917;-72
2021/08/07 02:09:55;;;;;;;7.80;4.30;;;;;;;23.22;60.45;98421.48;363308;104;1971817;-70
2021/08/07 02:11:03;;;;;;;8.27;5.13;;;;;;;23.09;59.80;98423.22;372025;106;1970016;-71
2021/08/07 02:12:15;;;;;;;9.34;4.45;;;;;;;23.21;59.20;98414.36;392678;104;1986901;-70
2021/08/07 02:13:24;;;;;;;7.37;4.65;;;;;;;22.95;59.34;98426.06;368478;109;1960922;-71
2021/08/07 02:14:55;;;;;;;8.19;4.82;;;;;;;22.96;60.07;98415.84;366971;110;1960957;-71
2021/08/07 02:16:08;;;;;;;8.14;4.30;;;;;;;23.14;59.54;98427.78;399561;104;1985827;-71
2021/08/07 02:17:15;;;;;;;10.71;4.85;;;;;;;22.95;59.49;98425.25;317806;107;2154082;-69
2021/08/07 02:18:28;;;;;;;7.67;3.97;;;;;;;23.09;59.05;98423.22;404258;103;1985962;-71
2021/08/07 02:19:37;;;;;;;8.18;4.46;;;;;;;22.89;58.96;98421.83;339153;105;2891935;-71
2021/08/07 02:21:01;;;;;;;7.49;4.45;;;;;;;22.90;58.76;98422.64;375142;107;1960996;-71
2021/08/07 02:22:17;;;;;;;8.26;4.92;;;;;;;23.04;58.93;98431.63;399126;104;2072013;-70
2021/08/07 02:23:23;;;;;;;6.76;4.28;;;;;;;22.86;58.99;98438.16;386810;105;1960812;-71
2021/08/07 02:24:36;;;;;;;7.13;4.51;;;;;;;22.94;58.55;98434.62;355927;101;2809001;-71
2021/08/07 02:25:44;;;;;;;8.48;4.09;;;;;;;22.83;58.29;98445.91;365954;103;1960943;-71
2021/08/07 02:27:09;;;;;;;7.74;4.13;;;;;;;22.79;58.38;98435.88;385876;103;1961866;-71
2021/08/07 02:28:23;;;;;;;7.91;4.06;;;;;;;22.95;58.46;98437.08;342168;106;2798990;-71
2021/08/07 02:29:30;;;;;;;7.08;4.11;;;;;;;22.78;58.19;98439.73;365494;108;1960987;-70
2021/08/07 02:30:43;;;;;;;9.99;4.34;;;;;;;22.86;58.13;98435.40;395282;104;1989046;-70
2021/08/07 02:31:51;;;;;;;7.72;4.82;;;;;;;22.81;58.14;98436.34;378719;107;1961984;-71
2021/08/07 02:33:18;;;;;;;6.70;3.90;;;;;;;22.70;58.38;98441.31;371578;109;1962001;-71
2021/08/07 02:34:32;;;;;;;7.32;4.25;;;;;;;22.87;57.92;98435.09;396145;104;1986044;-72
2021/08/07 02:35:39;;;;;;;8.17;4.57;;;;;;;22.79;57.93;98433.92;370827;109;1962070;-72
2021/08/07 02:36:52;;;;;;;8.10;3.87;;;;;;;22.81;57.70;98444.60;387823;106;1962023;-71
2021/08/07 02:38:01;;;;;;;9.27;4.83;;;;;;;22.70;57.88;98437.75;368801;108;1962994;-71
2021/08/07 02:39:26;;;;;;;8.72;4.09;;;;;;;22.63;57.97;98442.91;363564;109;1962014;-71
2021/08/07 02:40:34;;;;;;;7.21;4.16;;;;;;;22.70;58.11;98440.50;316324;109;2861008;-71
2021/08/07 02:41:46;;;;;;;7.52;4.08;;;;;;;22.82;58.05;98443.49;391381;103;1986081;-71
2021/08/07 02:42:54;;;;;;;7.80;3.87;;;;;;;22.66;58.05;98447.78;374289;107;1963969;-71
2021/08/07 02:44:07;;;;;;;7.03;4.12;;;;;;;22.76;58.26;98442.82;393667;104;1986855;-70
2021/08/07 02:45:15;;;;;;;13.39;4.67;;;;;;;22.70;57.99;98435.80;336426;107;2613012;-70
2021/08/07 02:46:41;;;;;;;6.71;4.32;;;;;;;22.64;58.02;98452.78;378092;107;1961927;-71
2021/08/07 02:47:49;;;;;;;7.53;4.34;;;;;;;22.60;58.32;98453.42;371442;107;1962038;-71
2021/08/07 02:49:02;;;;;;;7.36;4.24;;;;;;;22.71;58.35;98447.66;417094;99;1985918;-72
2021/08/07 02:50:08;;;;;;;6.86;3.90;;;;;;;22.64;58.25;98455.54;394957;103;1962908;-71
2021/08/07 02:51:14;;;;;;;7.00;3.96;;;;;;;22.57;58.52;98456.81;389430;101;1962019;-71
2021/08/07 02:52:26;;;;;;;7.77;4.59;;;;;;;22.61;58.74;98456.98;391344;104;2082053;-70
2021/08/07 02:53:33;;;;;;;8.28;4.64;;;;;;;22.51;58.88;98457.23;365247;111;1962013;-70
2021/08/07 02:54:40;;;;;;;8.17;4.64;;;;;;;22.51;58.84;98449.79;370213;107;1962067;-71
2021/08/07 02:55:45;;;;;;;7.32;4.42;;;;;;;22.52;58.84;98456.94;351754;109;1960800;-71
2021/08/07 02:56:58;;;;;;;7.19;4.22;;;;;;;22.65;58.88;98457.98;386745;106;1987087;-70
2021/08/07 02:58:05;;;;;;;6.61;4.38;;;;;;;22.52;59.01;98453.34;358377;110;1962110;-71
2021/08/07 02:59:18;;;;;;;8.10;4.74;;;;;;;22.70;58.91;98457.02;401739;104;1964860;-72
2021/08/07 03:00:25;;;;;;;9.16;4.21;;;;;;;22.49;59.09;98459.48;378676;105;1961899;-72
2021/08/07 03:01:48;;;;;;;7.81;4.40;;;;;;;22.39;59.36;98466.88;380493;105;1960733;-71
2021/08/07 03:03:00;;;;;;;8.78;4.72;;;;;;;22.37;59.77;98463.63;392124;104;2933983;-71
2021/08/07 03:04:07;;;;;;;8.25;5.31;;;;;;;22.29;59.96;98467.13;316387;108;2186015;-72
2021/08/07 03:05:13;;;;;;;9.34;4.39;;;;;;;22.38;59.69;98465.23;377962;108;1961827;-71
2021/08/07 03:06:26;;;;;;;8.18;4.64;;;;;;;22.45;59.97;98469.51;388573;106;2071078;-72
2021/08/07 03:07:32;;;;;;;7.99;5.00;;;;;;;22.31;59.96;98470.39;367456;109;1961743;-70
2021/08/07 03:08:44;;;;;;;10.46;5.03;;;;;;;22.41;60.08;98469.30;393866;104;1987033;-72
2021/08/07 03:09:51;;;;;;;7.68;4.81;;;;;;;22.32;60.09;98465.69;372530;107;1961986;-72
2021/08/07 03:11:15;;;;;;;6.83;4.14;;;;;;;22.17;60.33;98475.08;375767;107;1962043;-71
2021/08/07 03:12:21;;;;;;;7.28;4.26;;;;;;;22.27;60.23;98476.81;372364;107;1962009;-71
2021/08/07 03:13:33;;;;;;;8.21;4.72;;;;;;;22.38;60.05;98478.99;396218;104;1986051;-71
2021/08/07 03:14:39;;;;;;;9.53;4.44;;;;;;;22.26;60.21;98480.70;378043;106;1965061;-71
2021/08/07 03:15:45;;;;;;;8.54;4.35;;;;;;;22.36;59.77;98486.77;376376;106;1962011;-72
2021/08/07 03:16:53;;;;;;;7.53;4.93;;;;;;;22.30;59.70;98481.69;316649;107;2147020;-71
2021/08/07 03:18:05;;;;;;;11.34;4.84;;;;;;;22.54;59.59;98492.37;396464;104;1986018;-72
2021/08/07 03:19:12;;;;;;;6.56;4.32;;;;;;;22.46;59.22;98493.94;371409;106;1962026;-72
2021/08/07 03:20:30;;;;;;;7.47;4.59;;;;;;;22.61;59.34;98487.25;402312;101;1985940;-71
2021/08/07 03:21:31;;;;;;;7.77;4.36;;;;;;;22.58;58.85;98493.39;383240;105;1961982;-72
2021/08/07 03:22:56;;;;;;;7.23;4.64;;;;;;;22.57;58.77;98497.25;377506;104;1962117;-72
2021/08/07 03:24:09;;;;;;;7.84;4.49;;;;;;;22.76;58.74;98494.32;348641;104;2804013;-71
2021/08/07 03:25:16;;;;;;;7.14;4.56;;;;;;;22.55;58.80;98499.53;379805;107;1960994;-72
2021/08/07 03:26:28;;;;;;;6.82;4.54;;;;;;;22.71;58.75;98494.45;400001;104;1984778;-71
2021/08/07 03:27:35;;;;;;;11.29;4.71;;;;;;;22.58;58.72;98504.41;370764;107;1960801;-71
2021/08/07 03:28:58;;;;;;;8.89;5.13;;;;;;;22.56;58.86;98493.69;360199;110;2947785;-71
2021/08/07 03:30:06;;;;;;;8.31;4.62;;;;;;;22.53;58.90;98494.33;334875;110;2566069;-72
2021/08/07 03:31:12;;;;;;;8.67;4.29;;;;;;;22.63;58.71;98486.95;374754;107;1961951;-70
2021/08/07 03:32:24;;;;;;;6.83;3.86;;;;;;;22.66;58.84;98489.08;391901;104;1986025;-72
2021/08/07 03:33:30;;;;;;;7.67;4.51;;;;;;;22.49;58.99;98489.75;318351;109;2821009;-71
2021/08/07 03:34:42;;;;;;;7.06;4.05;;;;;;;22.72;58.79;98496.88;402524;104;1961943;-72
2021/08/07 03:35:49;;;;;;;8.63;4.67;;;;;;;22.66;58.54;98495.39;380299;105;1969895;-72
2021/08/07 03:37:13;;;;;;;8.91;4.58;;;;;;;22.72;58.22;98494.13;379060;105;1962009;-73
2021/08/07 03:38:20;;;;;;;6.38;3.95;;;;;;;22.75;58.03;98492.67;340069;107;2614866;-73
2021/08/07 03:39:33;;;;;;;7.39;4.72;;;;;;;22.82;58.02;98501.31;394996;103;2071970;-73
2021/08/07 03:40:38;;;;;;;6.84;4.21;;;;;;;22.72;57.94;98496.06;375812;107;1964045;-71
2021/08/07 03:41:48;;;;;;;8.52;4.61;;;;;;;22.72;57.78;98507.08;337649;106;2589879;-71
2021/08/07 03:42:53;;;;;;;8.56;3.97;;;;;;;22.73;57.75;98511.45;373188;107;1961898;-71
2021/08/07 03:44:05;;;;;;;7.16;4.17;;;;;;;22.84;57.64;98512.83;390491;104;2965047;-70
2021/08/07 03:45:12;;;;;;;7.59;3.89;;;;;;;22.69;57.65;98510.46;370666;105;2874017;-71
2021/08/07 03:46:24;;;;;;;9.37;4.16;;;;;;;22.69;57.47;98518.72;383355;106;1987033;-69
2021/08/07 03:47:31;;;;;;;7.01;3.66;;;;;;;22.66;57.21;98519.36;369735;109;1962053;-71
2021/08/07 03:48:54;;;;;;;7.08;3.81;;;;;;;22.68;56.70;98511.57;360738;111;1960706;-72
2021/08/07 03:50:08;;;;;;;8.33;4.05;;;;;;;22.79;56.96;98512.96;346502;104;2830969;-72
2021/08/07 03:51:14;;;;;;;7.60;3.76;;;;;;;22.65;57.05;98506.70;375976;107;1962051;-71
2021/08/07 03:52:21;;;;;;;6.86;4.01;;;;;;;22.63;56.79;98512.53;375040;107;1962939;-72
2021/08/07 03:53:33;;;;;;;6.57;3.90;;;;;;;22.65;56.37;98514.95;370247;109;1963965;-71
2021/08/07 03:54:45;;;;;;;6.09;3.52;;;;;;;22.80;56.30;98511.82;403817;104;1985928;-72
2021/08/07 03:55:52;;;;;;;7.37;4.64;;;;;;;22.61;56.61;98523.84;382655;105;1962060;-72
2021/08/07 03:57:04;;;;;;;6.90;4.24;;;;;;;22.71;56.69;98522.78;396091;103;1964884;-72
2021/08/07 03:58:09;;;;;;;9.21;4.57;;;;;;;22.67;56.46;98523.72;373658;107;1969975;-72
2021/08/07 03:59:17;;;;;;;7.46;4.26;;;;;;;22.75;56.11;98529.27;370492;109;1962047;-72
2021/08/07 04:00:31;;;;;;;7.44;4.09;;;;;;;22.93;55.70;98519.19;372011;109;2073065;-72
2021/08/07 04:01:38;;;;;;;7.78;3.84;;;;;;;22.84;55.63;98515.59;313319;113;2028966;-71
2021/08/07 04:02:51;;;;;;;6.93;3.52;;;;;;;22.91;55.55;98504.91;377773;108;1988075;-72
2021/08/07 04:03:56;;;;;;;9.18;3.81;;;;;;;22.69;55.69;98519.53;355053;114;1961982;-71
2021/08/07 04:05:21;;;;;;;6.84;3.80;;;;;;;22.72;55.30;98504.33;351638;115;1961945;-72
2021/08/07 04:06:34;;;;;;;7.39;3.78;;;;;;;22.61;56.02;98512.03;355870;104;2780011;-73
2021/08/07 04:07:40;;;;;;;6.31;3.24;;;;;;;22.59;55.83;98517.84;374424;107;1961787;-72
2021/08/07 04:08:52;;;;;;;6.44;3.72;;;;;;;22.64;56.07;98507.84;398983;104;1986981;-72
2021/08/07 04:09:57;;;;;;;9.25;3.97;;;;;;;22.38;56.43;98513.95;370598;108;1962061;-73
2021/08/07 04:11:20;;;;;;;6.94;3.98;;;;;;;22.51;56.15;98507.58;373705;107;1962061;-70
2021/08/07 04:12:33;;;;;;;5.41;3.25;;;;;;;22.69;56.02;98504.95;391047;104;1985911;-72
2021/08/07 04:13:39;;;;;;;8.61;3.93;;;;;;;22.58;55.88;98510.72;367414;107;1961018;-72
2021/08/07 04:14:52;;;;;;;7.78;3.98;;;;;;;22.74;55.88;98500.13;391480;106;1964917;-73
2021/08/07 04:15:57;;;;;;;6.43;3.56;;;;;;;22.58;56.11;98507.96;374503;107;1963009;-72
2021/08/07 04:17:20;;;;;;;7.52;3.93;;;;;;;22.65;56.13;98503.95;310801;107;2221859;-72
2021/08/07 04:18:26;;;;;;;5.78;3.75;;;;;;;22.66;56.00;98511.09;367191;109;1960891;-72
2021/08/07 04:19:38;;;;;;;6.87;4.13;;;;;;;22.90;55.85;98519.82;406309;101;1985899;-72
2021/08/07 04:20:48;;;;;;;7.42;4.65;;;;;;;22.69;56.02;98511.27;378171;104;1960737;-72
2021/08/07 04:21:53;;;;;;;6.34;3.70;;;;;;;22.72;56.08;98516.14;385959;104;1960919;-72
2021/08/07 04:23:06;;;;;;;5.91;3.41;;;;;;;22.79;56.05;98515.72;387344;104;2862006;-73
2021/08/07 04:24:13;;;;;;;7.93;3.68;;;;;;;22.50;55.76;98525.23;357508;105;1961045;-72
2021/08/07 04:25:27;;;;;;;7.83;3.51;;;;;;;22.74;55.76;98529.61;343406;104;2830054;-72
2021/08/07 04:26:33;;;;;;;6.32;3.54;;;;;;;22.76;55.42;98522.66;370086;108;1968763;-71
2021/08/07 04:27:39;;;;;;;6.81;3.71;;;;;;;22.50;55.83;98538.19;369671;108;1961905;-71
2021/08/07 04:28:53;;;;;;;8.21;4.13;;;;;;;22.87;55.39;98522.41;380822;109;1987013;-72
2021/08/07 04:29:58;;;;;;;5.70;3.63;;;;;;;22.69;55.27;98521.48;361050;111;1962007;-71
2021/08/07 04:31:06;;;;;;;6.28;3.80;;;;;;;22.70;55.57;98523.09;361587;110;1962043;-72
2021/08/07 04:32:12;;;;;;;9.26;4.06;;;;;;;22.83;55.09;98522.20;331617;110;2518024;-72
2021/08/07 04:33:24;;;;;;;6.31;4.01;;;;;;;23.13;54.73;98504.10;397420;104;2071893;-72
2021/08/07 04:34:30;;;;;;;8.82;3.55;;;;;;;23.04;54.82;98511.50;381345;105;1961978;-72
2021/08/07 04:35:43;;;;;;;5.58;3.78;;;;;;;23.09;54.30;98519.62;344752;104;2809987;-73
2021/08/07 04:36:51;;;;;;;6.94;3.78;;;;;;;23.09;54.34;98507.80;375028;106;1962073;-72
2021/08/07 04:38:03;;;;;;;5.79;3.52;;;;;;;23.17;53.92;98510.59;332881;104;2234938;-73
2021/08/07 04:39:11;;;;;;;5.43;2.85;;;;;;;23.05;54.00;98518.65;368781;109;1962036;-73
2021/08/07 04:40:38;;;;;;;5.22;3.49;;;;;;;23.08;53.47;98525.47;368226;108;1963032;-72
2021/08/07 04:41:50;;;;;;;6.30;3.08;;;;;;;23.07;53.31;98527.39;386785;106;1964967;-73
2021/08/07 04:42:56;;;;;;;6.60;3.32;;;;;;;23.01;53.01;98523.15;365667;109;1962168;-72
2021/08/07 04:44:03;;;;;;;5.49;3.24;;;;;;;23.16;52.87;98519.19;365622;109;1961959;-73
2021/08/07 04:45:16;;;;;;;6.55;3.46;;;;;;;23.21;52.62;98521.80;397699;103;1965007;-72
2021/08/07 04:46:23;;;;;;;6.68;3.39;;;;;;;23.16;52.36;98519.19;377844;107;1961964;-73
2021/08/07 04:47:29;;;;;;;4.84;3.25;;;;;;;23.19;52.06;98535.88;330893;106;2048810;-72
2021/08/07 04:48:41;;;;;;;5.63;3.19;;;;;;;23.33;52.22;98516.48;386707;106;1986031;-74
2021/08/07 04:49:48;;;;;;;5.33;2.87;;;;;;;23.23;52.17;98514.01;366014;109;1962052;-74
2021/08/07 04:50:55;;;;;;;5.91;2.97;;;;;;;23.23;52.10;98519.52;357440;109;1961044;-73
2021/08/07 04:52:07;;;;;;;5.23;2.56;;;;;;;23.33;52.07;98529.45;393870;104;1987052;-72
2021/08/07 04:53:14;;;;;;;7.08;3.12;;;;;;;23.20;52.14;98520.97;374332;107;1961894;-74
2021/08/07 04:54:27;;;;;;;6.56;3.18;;;;;;;23.26;52.21;98533.49;396514;104;1961873;-73
2021/08/07 04:55:34;;;;;;;5.23;3.04;;;;;;;23.35;51.96;98529.95;362348;112;1970944;-73
2021/08/07 04:56:58;;;;;;;7.05;3.46;;;;;;;23.40;51.54;98529.82;370724;107;1964070;-74
2021/08/07 04:58:05;;;;;;;5.43;2.87;;;;;;;23.35;51.68;98528.02;376477;107;1962055;-73
2021/08/07 04:59:17;;;;;;;5.97;2.86;;;;;;;23.57;51.70;98521.59;386330;106;1966081;-73
2021/08/07 05:00:23;;;;;;;7.89;3.36;;;;;;;23.38;51.11;98519.10;366548;107;1963935;-73
2021/08/07 05:01:28;;;;;;;4.62;2.68;;;;;;;23.35;51.13;98514.23;367718;109;1962830;-72
2021/08/07 05:02:35;;;;;;;6.48;2.91;;;;;;;23.41;51.02;98515.70;365656;109;1961928;-71
2021/08/07 05:03:41;;;;;;;4.32;2.78;;;;;;;23.56;50.92;98522.73;354694;111;2873961;-72
2021/08/07 05:04:53;;;;;;;4.22;2.54;;;;;;;23.71;50.94;98518.73;393346;104;1961904;-72
2021/08/07 05:05:58;;;;;;;5.29;2.45;;;;;;;23.53;50.55;98537.16;375004;105;1968929;-72
2021/08/07 05:07:11;;;;;;;5.12;2.90;;;;;;;23.57;50.54;98520.78;403089;101;1987037;-73
2021/08/07 05:08:16;;;;;;;4.33;2.63;;;;;;;23.56;50.48;98522.73;375882;105;1962080;-73
2021/08/07 05:09:39;;;;;;;4.96;2.73;;;;;;;24.17;49.41;98524.83;378378;107;1964067;-73
2021/08/07 05:10:53;;;;;;;4.97;2.79;;;;;;;24.44;48.75;98518.17;388041;106;1985948;-72
2021/08/07 05:11:58;;;;;;;4.42;2.46;;;;;;;23.95;49.23;98520.25;371677;109;1961999;-72
2021/08/07 05:13:04;;;;;;;4.31;2.46;;;;;;;23.68;49.21;98539.48;365571;108;1965060;-72
2021/08/07 05:14:10;;;;;;;4.82;3.10;;;;;;;23.73;49.70;98513.72;360616;111;1961972;-72
2021/08/07 05:15:15;;;;;;;5.81;2.82;;;;;;;23.83;49.65;98518.12;363331;110;1961990;-73
2021/08/07 05:16:27;;;;;;;4.49;2.72;;;;;;;23.87;49.52;98506.14;386376;106;1986025;-71
2021/08/07 05:17:34;;;;;;;4.83;2.51;;;;;;;23.74;49.38;98517.28;327164;109;2658050;-72
2021/08/07 05:18:48;;;;;;;3.88;2.30;;;;;;;23.76;49.65;98515.83;394384;104;1986894;-72
2021/08/07 05:19:54;;;;;;;3.67;2.46;;;;;;;23.78;49.46;98512.77;365746;106;2904958;-73
2021/08/07 05:21:18;;;;;;;5.88;2.82;;;;;;;23.80;49.43;98514.07;375064;105;1961988;-72
2021/08/07 05:22:30;;;;;;;5.33;2.87;;;;;;;24.05;49.34;98515.23;393857;104;2073987;-71
2021/08/07 05:23:36;;;;;;;5.33;2.46;;;;;;;24.02;49.14;98515.07;373269;107;1964051;-72
2021/08/07 05:24:49;;;;;;;4.63;2.36;;;;;;;24.10;49.06;98512.31;391390;103;1986852;-71
2021/08/07 05:25:55;;;;;;;5.99;2.66;;;;;;;24.03;49.27;98513.95;371602;105;1962047;-72
2021/08/07 05:27:14;;;;;;;4.63;2.63;;;;;;;24.04;49.28;98521.89;391827;104;1985874;-71
2021/08/07 05:28:20;;;;;;;4.17;2.09;;;;;;;23.90;49.06;98512.96;345140;109;2399012;-72
2021/08/07 05:29:44;;;;;;;6.33;2.46;;;;;;;23.97;48.96;98529.02;369801;108;1962017;-71